createdAt,value
2022-12-27T00:02:58.133Z,58.92
2022-12-27T00:06:00.513Z,60.80
2022-12-27T00:09:03.404Z,62.22
2022-12-27T00:12:05.675Z,61.10
2022-12-27T00:15:08.198Z,63.73
2022-12-27T00:18:10.158Z,52.35
2022-12-27T00:21:12.440Z,61.70
2022-12-27T00:24:14.661Z,58.15
2022-12-27T00:27:22.948Z,57.92
2022-12-27T00:30:24.925Z,58.30
2022-12-27T00:33:27.214Z,66.32
2022-12-27T00:36:29.765Z,62.80
2022-12-27T00:39:31.724Z,63.00
2022-12-27T00:42:33.718Z,62.85
2022-12-27T00:45:35.855Z,62.00
2022-12-27T00:48:38.227Z,74.88
2022-12-27T00:51:40.276Z,68.30
2022-12-27T00:54:42.612Z,66.22
2022-12-27T00:57:44.899Z,63.30
2022-12-27T01:00:47.036Z,65.97
2022-12-27T01:03:49.109Z,55.85
2022-12-27T01:06:51.120Z,58.70
2022-12-27T01:09:53.312Z,65.75
2022-12-27T01:12:55.338Z,62.53
2022-12-27T01:15:57.334Z,54.63
2022-12-27T01:18:59.932Z,59.03
2022-12-27T01:22:02.892Z,60.03
2022-12-27T01:25:05.273Z,60.38
2022-12-27T01:28:07.228Z,67.40
2022-12-27T01:31:10.221Z,67.15
2022-12-27T01:34:12.274Z,61.10
2022-12-27T01:37:14.270Z,62.23
2022-12-27T01:40:16.625Z,59.38
2022-12-27T01:43:18.787Z,59.05
2022-12-27T01:46:20.827Z,61.80
2022-12-27T01:49:23.167Z,57.80
2022-12-27T01:52:26.348Z,58.47
2022-12-27T01:55:48.620Z,59.42
2022-12-27T01:58:52.159Z,63.43
2022-12-27T02:01:54.276Z,57.20
2022-12-27T02:04:56.341Z,60.88
2022-12-27T02:08:06.644Z,56.43
2022-12-27T02:11:09.217Z,57.72
2022-12-27T02:14:11.320Z,54.58
2022-12-27T02:17:15.275Z,60.85
2022-12-27T02:20:22.667Z,57.80
2022-12-27T02:24:02.477Z,61.95
2022-12-27T02:27:05.488Z,59.05
2022-12-27T02:30:08.682Z,59.43
2022-12-27T02:33:14.990Z,61.90
2022-12-27T02:36:18.976Z,56.33
2022-12-27T02:39:21.432Z,58.80
2022-12-27T02:42:43.561Z,55.28
2022-12-27T02:46:19.878Z,53.50
2022-12-27T02:49:41.991Z,52.25
2022-12-27T02:53:04.596Z,56.63
2022-12-27T02:56:25.109Z,49.63
2022-12-27T02:59:31.680Z,50.55
2022-12-27T03:03:08.236Z,50.77
2022-12-27T03:06:38.174Z,58.72
2022-12-27T03:10:04.318Z,56.45
2022-12-27T03:13:28.043Z,50.07
2022-12-27T03:16:41.777Z,53.42
2022-12-27T03:20:03.187Z,57.53
2022-12-27T03:23:23.853Z,54.95
2022-12-27T03:26:26.498Z,48.80
2022-12-27T03:29:47.048Z,52.88
2022-12-27T03:33:11.586Z,49.40
2022-12-27T03:36:40.749Z,47.90
2022-12-27T03:39:44.221Z,53.47
2022-12-27T03:43:07.548Z,51.97
2022-12-27T03:46:35.124Z,49.40
2022-12-27T03:49:37.571Z,53.22
2022-12-27T03:52:42.035Z,48.30
2022-12-27T03:55:44.509Z,51.70
2022-12-27T03:58:46.896Z,49.90
2022-12-27T04:01:49.451Z,51.47
2022-12-27T04:04:51.407Z,55.45
2022-12-27T04:08:12.274Z,48.57
2022-12-27T04:11:33.386Z,51.33
2022-12-27T04:14:54.114Z,53.05
2022-12-27T04:18:14.902Z,52.23
2022-12-27T04:21:35.455Z,54.40
2022-12-27T04:24:56.247Z,58.55
2022-12-27T04:28:17.206Z,51.15
2022-12-27T04:31:38.129Z,50.92
2022-12-27T04:34:42.704Z,47.75
2022-12-27T04:37:44.682Z,47.80
2022-12-27T04:41:05.581Z,46.43
2022-12-27T04:44:27.285Z,52.38
2022-12-27T04:47:48.005Z,55.63
2022-12-27T04:51:09.174Z,48.53
2022-12-27T04:54:47.838Z,56.05
2022-12-27T04:57:50.557Z,58.10
2022-12-27T05:01:14.346Z,54.10
2022-12-27T05:04:17.040Z,43.92
2022-12-27T05:07:37.456Z,47.97
2022-12-27T05:10:57.973Z,51.30
2022-12-27T05:14:00.571Z,54.77
2022-12-27T05:17:02.564Z,55.83
2022-12-27T05:20:04.775Z,48.08
2022-12-27T05:23:25.408Z,54.70
2022-12-27T05:26:28.216Z,48.33
2022-12-27T05:29:35.944Z,51.92
2022-12-27T05:32:37.939Z,48.45
2022-12-27T05:35:40.157Z,46.58
2022-12-27T05:38:42.463Z,43.83
2022-12-27T05:41:44.914Z,42.28
2022-12-27T05:44:47.010Z,44.10
2022-12-27T05:47:49.079Z,38.10
2022-12-27T05:50:52.196Z,40.42
2022-12-27T05:53:54.547Z,39.17
2022-12-27T05:56:56.530Z,31.15
2022-12-27T05:59:58.541Z,29.48
2022-12-27T06:03:02.514Z,22.17
2022-12-27T06:06:04.606Z,16.17
2022-12-27T06:09:06.607Z,14.90
2022-12-27T06:12:08.756Z,8.80
2022-12-27T06:15:12.058Z,9.03
2022-12-27T06:18:14.116Z,9.73
2022-12-27T06:21:16.908Z,7.95
2022-12-27T06:24:19.051Z,7.60
2022-12-27T06:27:21.056Z,8.98
2022-12-27T06:30:23.774Z,7.20
2022-12-27T06:33:25.742Z,9.30
2022-12-27T06:36:29.633Z,10.63
2022-12-27T06:39:31.657Z,9.93
2022-12-27T06:42:33.627Z,9.07
2022-12-27T06:45:36.145Z,9.10
2022-12-27T06:48:38.232Z,7.22
2022-12-27T06:51:40.444Z,6.65
2022-12-27T06:54:43.160Z,8.70
2022-12-27T06:57:45.089Z,7.80
2022-12-27T07:00:47.586Z,8.15
2022-12-27T07:03:50.587Z,7.47
2022-12-27T07:06:52.992Z,6.17
2022-12-27T07:09:55.063Z,5.25
2022-12-27T07:12:57.158Z,5.07
2022-12-27T07:15:59.232Z,7.65
2022-12-27T07:19:01.375Z,6.90
2022-12-27T07:22:03.302Z,5.57
2022-12-27T07:25:05.668Z,4.72
2022-12-27T07:28:07.633Z,2.92
2022-12-27T07:31:10.509Z,2.27
2022-12-27T07:34:12.912Z,2.20
2022-12-27T07:37:15.014Z,1.65
2022-12-27T07:40:17.416Z,1.80
2022-12-27T07:43:20.158Z,1.30
2022-12-27T07:46:23.195Z,1.40
2022-12-27T07:49:25.191Z,1.20
2022-12-27T07:52:27.477Z,2.13
2022-12-27T07:55:29.391Z,4.00
2022-12-27T07:58:35.215Z,1.07
2022-12-27T08:02:03.013Z,3.38
2022-12-27T08:05:05.294Z,1.77
2022-12-27T08:08:07.259Z,2.40
2022-12-27T08:11:09.323Z,2.73
2022-12-27T08:14:13.127Z,1.05
2022-12-27T08:17:16.872Z,2.03
2022-12-27T08:20:18.838Z,1.10
2022-12-27T08:23:21.054Z,1.97
2022-12-27T08:26:24.367Z,2.00
2022-12-27T08:29:26.773Z,1.77
2022-12-27T08:32:29.165Z,1.17
2022-12-27T08:35:52.349Z,1.73
2022-12-27T08:38:54.274Z,2.03
2022-12-27T08:41:56.467Z,1.27
2022-12-27T08:44:58.784Z,3.70
2022-12-27T08:48:01.065Z,1.17
2022-12-27T08:51:10.553Z,1.40
2022-12-27T08:54:14.736Z,3.43
2022-12-27T08:57:16.707Z,0.75
2022-12-27T09:00:19.121Z,1.05
2022-12-27T09:03:21.290Z,0.82
2022-12-27T09:06:23.718Z,1.40
2022-12-27T09:09:25.677Z,1.93
2022-12-27T09:12:27.674Z,1.13
2022-12-27T09:15:29.790Z,1.27
2022-12-27T09:18:32.166Z,1.48
2022-12-27T09:21:34.293Z,0.93
2022-12-27T09:24:36.826Z,1.13
2022-12-27T09:27:39.246Z,1.15
2022-12-27T09:30:41.291Z,0.85
2022-12-27T09:33:43.341Z,1.35
2022-12-27T09:36:45.330Z,2.07
2022-12-27T09:39:47.258Z,1.80
2022-12-27T09:43:07.520Z,2.75
2022-12-27T09:46:17.437Z,1.88
2022-12-27T09:49:27.149Z,1.05
2022-12-27T09:52:34.206Z,1.00
2022-12-27T09:55:41.387Z,0.88
2022-12-27T09:58:50.391Z,1.27
2022-12-27T10:01:52.640Z,1.40
2022-12-27T10:08:25.361Z,0.60
2022-12-27T10:11:36.503Z,0.75
2022-12-27T10:14:59.835Z,1.67
2022-12-27T10:18:14.592Z,0.65
2022-12-27T10:21:19.957Z,1.13
2022-12-27T10:24:26.989Z,2.57
2022-12-27T10:27:29.074Z,1.40
2022-12-27T10:30:31.399Z,0.88
2022-12-27T10:33:34.240Z,1.25
2022-12-27T10:36:36.215Z,1.90
2022-12-27T10:39:38.939Z,0.80
2022-12-27T10:42:42.125Z,2.25
2022-12-27T10:45:44.254Z,1.15
2022-12-27T10:52:25.505Z,2.05
2022-12-27T10:55:39.463Z,1.73
2022-12-27T10:58:54.625Z,1.85
2022-12-27T11:02:00.905Z,2.38
2022-12-27T11:05:03.013Z,1.55
2022-12-27T11:08:20.664Z,2.75
2022-12-27T11:11:24.556Z,4.17
2022-12-27T11:14:26.943Z,1.10
2022-12-27T11:17:36.411Z,1.35
2022-12-27T11:20:38.955Z,1.70
2022-12-27T11:23:45.076Z,1.65
2022-12-27T11:26:53.982Z,1.67
2022-12-27T11:29:57.232Z,4.22
2022-12-27T11:33:02.336Z,1.67
2022-12-27T11:36:04.340Z,3.60
2022-12-27T11:39:07.607Z,1.50
2022-12-27T11:42:13.736Z,2.50
2022-12-27T11:45:18.219Z,1.38
2022-12-27T11:48:20.160Z,2.25
2022-12-27T11:51:22.323Z,1.42
2022-12-27T11:54:39.542Z,2.38
2022-12-27T11:57:44.609Z,1.50
2022-12-27T12:01:05.708Z,1.73
2022-12-27T12:04:23.652Z,1.63
2022-12-27T12:07:41.343Z,1.55
2022-12-27T12:11:02.811Z,1.75
2022-12-27T12:14:15.893Z,1.73
2022-12-27T12:17:42.005Z,1.20
2022-12-27T12:20:51.283Z,3.22
2022-12-27T12:24:08.463Z,1.30
2022-12-27T12:27:29.111Z,2.13
2022-12-27T12:30:37.133Z,2.00
2022-12-27T12:33:47.697Z,1.55
2022-12-27T12:36:52.645Z,2.55
2022-12-27T12:40:03.302Z,2.72
2022-12-27T12:43:13.428Z,2.88
2022-12-27T12:46:35.058Z,1.60
2022-12-27T12:49:55.716Z,2.17
2022-12-27T12:53:06.500Z,1.42
2022-12-27T12:56:15.989Z,2.22
2022-12-27T12:59:23.954Z,3.42
2022-12-27T13:02:55.440Z,7.60
2022-12-27T13:06:15.848Z,4.20
2022-12-27T13:09:23.863Z,2.42
2022-12-27T13:12:33.202Z,2.10
2022-12-27T13:15:52.633Z,1.88
2022-12-27T13:18:57.771Z,1.43
2022-12-27T13:21:59.744Z,2.13
2022-12-27T13:25:01.806Z,3.38
2022-12-27T13:28:22.475Z,1.20
2022-12-27T13:31:28.349Z,1.73
2022-12-27T13:34:36.764Z,2.00
2022-12-27T13:37:57.177Z,2.00
2022-12-27T13:40:59.169Z,2.55
2022-12-27T13:44:17.125Z,2.10
2022-12-27T13:47:22.626Z,2.20
2022-12-27T13:50:28.100Z,1.97
2022-12-27T13:53:51.379Z,3.75
2022-12-27T13:57:12.281Z,2.33
2022-12-27T14:00:21.213Z,2.15
2022-12-27T14:03:42.240Z,3.13
2022-12-27T14:06:53.769Z,1.70
2022-12-27T14:10:02.045Z,2.40
2022-12-27T14:13:08.060Z,1.80
2022-12-27T14:16:16.515Z,1.52
2022-12-27T14:19:32.705Z,1.90
2022-12-27T14:22:37.700Z,1.83
2022-12-27T14:25:39.868Z,3.15
2022-12-27T14:28:41.855Z,2.95
2022-12-27T14:31:53.340Z,16.30
2022-12-27T14:34:59.833Z,29.40
2022-12-27T14:38:05.515Z,4.22
2022-12-27T14:41:26.965Z,20.38
2022-12-27T14:44:41.703Z,5.97
2022-12-27T14:47:44.429Z,2.78
2022-12-27T14:50:55.615Z,1.88
2022-12-27T14:54:00.757Z,4.80
2022-12-27T14:57:08.821Z,2.90
2022-12-27T15:00:13.197Z,2.90
2022-12-27T15:03:15.659Z,2.28
2022-12-27T15:06:20.630Z,2.70
2022-12-27T15:09:31.538Z,2.47
2022-12-27T15:12:36.663Z,3.80
2022-12-27T15:15:54.022Z,4.97
2022-12-27T15:19:31.511Z,2.97
2022-12-27T15:22:42.774Z,2.20
2022-12-27T15:25:47.465Z,3.92
2022-12-27T15:28:56.128Z,42.15
2022-12-27T15:31:58.664Z,355.25
2022-12-27T15:35:06.419Z,14.27
2022-12-27T15:38:12.784Z,68.70
2022-12-27T15:41:24.267Z,22.40
2022-12-27T15:44:30.336Z,5.97
2022-12-27T15:47:35.366Z,2.95
2022-12-27T15:50:37.750Z,3.67
2022-12-27T15:53:58.753Z,6.23
2022-12-27T15:57:20.954Z,5.45
2022-12-27T16:00:31.216Z,3.05
2022-12-27T16:03:36.044Z,5.45
2022-12-27T16:06:43.883Z,10.13
2022-12-27T16:09:46.474Z,39.63
2022-12-27T16:12:48.413Z,17.58
2022-12-27T16:15:56.779Z,9.50
2022-12-27T16:19:01.343Z,8.50
2022-12-27T16:22:03.295Z,7.00
2022-12-27T16:25:30.316Z,5.53
2022-12-27T16:28:34.083Z,5.20
2022-12-27T16:31:41.830Z,9.70
2022-12-27T16:34:47.784Z,11.38
2022-12-27T16:37:54.237Z,10.65
2022-12-27T16:40:58.458Z,9.18
2022-12-27T16:44:02.108Z,9.07
2022-12-27T16:47:10.541Z,12.97
2022-12-27T16:50:25.370Z,12.43
2022-12-27T16:53:30.916Z,21.30
2022-12-27T16:56:34.027Z,15.23
2022-12-27T16:59:54.436Z,11.35
2022-12-27T17:02:56.817Z,9.48
2022-12-27T17:06:30.601Z,10.93
2022-12-27T17:09:21.490Z,3.97
2022-12-27T17:12:23.636Z,8.70
2022-12-27T17:15:26.182Z,5.20
2022-12-27T17:18:31.821Z,5.90
2022-12-27T17:21:37.799Z,7.25
2022-12-27T17:24:39.993Z,6.20
2022-12-27T17:27:42.231Z,7.30
2022-12-27T17:30:47.037Z,6.60
2022-12-27T17:33:49.583Z,7.93
2022-12-27T17:37:00.266Z,8.38
2022-12-27T17:40:11.307Z,7.53
2022-12-27T17:43:46.493Z,3.97
2022-12-27T17:47:15.077Z,6.38
2022-12-27T17:50:23.994Z,5.27
2022-12-27T17:53:46.296Z,5.20
2022-12-27T17:57:07.716Z,5.00
2022-12-27T18:00:23.466Z,5.10
2022-12-27T18:03:30.431Z,4.82
2022-12-27T18:06:35.567Z,7.80
2022-12-27T18:09:44.268Z,6.00
2022-12-27T18:12:48.713Z,5.38
2022-12-27T18:15:50.918Z,22.35
2022-12-27T18:18:57.855Z,36.50
2022-12-27T18:22:09.751Z,24.10
2022-12-27T18:25:50.271Z,11.90
2022-12-27T18:28:55.130Z,19.35
2022-12-27T18:32:05.848Z,16.43
2022-12-27T18:35:24.153Z,17.92
2022-12-27T18:38:38.095Z,17.88
2022-12-27T18:41:55.064Z,16.33
2022-12-27T18:45:00.989Z,15.93
2022-12-27T18:48:04.734Z,17.25
2022-12-27T18:51:08.429Z,14.77
2022-12-27T18:54:20.829Z,21.10
2022-12-27T18:57:31.518Z,20.80
2022-12-27T19:00:34.570Z,20.10
2022-12-27T19:03:40.686Z,25.27
2022-12-27T19:06:49.381Z,30.52
2022-12-27T19:09:53.058Z,27.45
2022-12-27T19:12:55.627Z,31.17
2022-12-27T19:15:57.825Z,26.00
2022-12-27T19:19:03.228Z,29.05
2022-12-27T19:22:22.674Z,29.85
2022-12-27T19:25:30.171Z,31.60
2022-12-27T19:28:32.373Z,33.45
2022-12-27T19:31:35.598Z,41.13
2022-12-27T19:34:47.668Z,37.23
2022-12-27T19:37:50.165Z,36.75
2022-12-27T19:40:56.668Z,34.30
2022-12-27T19:44:03.446Z,39.05
2022-12-27T19:47:05.583Z,35.22
2022-12-27T19:50:07.859Z,35.30
2022-12-27T19:53:11.125Z,35.67
2022-12-27T19:56:13.079Z,40.53
2022-12-27T19:59:18.571Z,36.00
2022-12-27T20:02:21.512Z,33.92
2022-12-27T20:06:11.178Z,41.53
2022-12-27T20:08:48.276Z,48.60
2022-12-27T20:11:50.420Z,47.20
2022-12-27T20:14:53.548Z,40.38
2022-12-27T20:17:56.021Z,32.80
2022-12-27T20:20:58.019Z,35.38
2022-12-27T20:23:59.996Z,35.53
2022-12-27T20:27:02.515Z,39.60
2022-12-27T20:30:05.262Z,46.42
2022-12-27T20:33:07.324Z,56.85
2022-12-27T20:36:09.593Z,43.37
2022-12-27T20:39:11.571Z,45.88
2022-12-27T20:42:13.617Z,48.20
2022-12-27T20:45:15.635Z,45.13
2022-12-27T20:48:18.103Z,48.63
2022-12-27T20:51:21.593Z,53.15
2022-12-27T20:54:23.750Z,47.50
2022-12-27T20:57:25.671Z,45.87
2022-12-27T21:00:28.058Z,56.95
2022-12-27T21:03:30.164Z,56.55
2022-12-27T21:06:32.570Z,57.70
2022-12-27T21:09:34.684Z,47.35
2022-12-27T21:12:37.410Z,53.00
2022-12-27T21:15:42.594Z,53.17
2022-12-27T21:18:45.166Z,49.70
2022-12-27T21:21:47.495Z,47.58
2022-12-27T21:24:49.585Z,44.30
2022-12-27T21:27:51.597Z,49.87
2022-12-27T21:30:56.969Z,51.75
2022-12-27T21:34:01.766Z,47.58
2022-12-27T21:37:07.478Z,42.13
2022-12-27T21:40:13.687Z,52.72
2022-12-27T21:43:15.748Z,50.83
2022-12-27T21:46:22.065Z,50.17
2022-12-27T21:49:24.092Z,45.35
2022-12-27T21:52:26.056Z,43.53
2022-12-27T21:55:28.070Z,49.22
2022-12-27T21:58:30.916Z,46.77
2022-12-27T22:01:50.225Z,48.67
2022-12-27T22:04:53.621Z,45.47
2022-12-27T22:07:55.889Z,44.20
2022-12-27T22:10:57.968Z,44.08
2022-12-27T22:14:00.024Z,46.72
2022-12-27T22:17:03.746Z,46.60
2022-12-27T22:20:06.576Z,50.13
2022-12-27T22:23:08.715Z,50.78
2022-12-27T22:26:14.740Z,55.58
2022-12-27T22:29:17.371Z,47.73
2022-12-27T22:32:19.471Z,46.72
2022-12-27T22:35:21.435Z,51.13
2022-12-27T22:38:23.530Z,45.53
2022-12-27T22:41:29.178Z,45.17
2022-12-27T22:44:31.542Z,44.50
2022-12-27T22:47:33.493Z,46.17
2022-12-27T22:50:36.656Z,44.03
2022-12-27T22:53:39.304Z,44.40
2022-12-27T22:56:42.266Z,44.28
2022-12-27T22:59:44.321Z,46.67
2022-12-27T23:02:47.343Z,40.28
2022-12-27T23:05:59.162Z,42.97
2022-12-27T23:09:01.403Z,40.13
2022-12-27T23:12:07.099Z,38.97
2022-12-27T23:15:09.293Z,36.00
2022-12-27T23:18:11.628Z,41.42
2022-12-27T23:21:20.441Z,55.35
2022-12-27T23:24:26.476Z,43.78
2022-12-27T23:27:28.981Z,41.90
2022-12-27T23:30:31.829Z,49.60
2022-12-27T23:33:34.259Z,45.90
2022-12-27T23:36:36.255Z,39.97
2022-12-27T23:39:38.224Z,41.73
2022-12-27T23:42:40.596Z,45.55
2022-12-27T23:45:43.061Z,46.15
2022-12-27T23:48:45.419Z,47.15
2022-12-27T23:51:47.381Z,51.58
2022-12-27T23:54:49.473Z,45.03
2022-12-27T23:57:51.536Z,49.63
